Coonabarabran Namoi, New South Wales

12:28 PM AEST on July 24, 2016 (GMT +1000)
Warrumbungles | | Change Station

Elev 1749 ft 31.27 °S, 149.22 °E | Updated 3 minutes ago

Mostly Cloudy
Mostly Cloudy
50.9 °F
Feels Like 50.9 °F
N
3.6
Wind Variable Wind from NW
Gusts 6.3 mph

Today
High -- | Low -- °F
--% Chance of Precip.
Yesterday
High -- | Low -- °F
Precip. -- in
Pressure 30.01 in
Visibility -9999.0 miles
Clouds
Dew Point 36 °F
Humidity 55%
Rainfall Not available.
Snow Depth Not available.
6:55 AM 5:23 PM
Waning Gibbous, 80% visible
METAR YCBB 240200Z AUTO 01005KT //// // ////// 08/00 Q1016
Pressure 30.01 in
Visibility -9999.0 miles
Clouds
Dew Point 36 °F
Humidity 55%
Rainfall Not available.
Snow Depth Not available.
6:55 AM 5:23 PM
Waning Gibbous, 80% visible
METAR YCBB 240200Z AUTO 01005KT //// // ////// 08/00 Q1016

10-Day Weather Forecast

No radar image for this location.
×

Almanac

Astronomy

Jul. 24, 2016 Rise Set
Actual Time
Civil Twilight
Nautical Twilight
Astronomical Twilight
Moon
Length of Visible Light
Length of Day
Tomorrow will be .
, % of the Moon is Illuminated

Today's Extremes

Country Highs Country Lows

Community

WunderPhotos

Upload Photos

1,927,000 photos uploaded!

WunderBlog® & News

Nearby

Air Quality

  Air Quality AQ Index Pollutant
Not available.

Snow Depth

Station Depth Elevation

Earthquake Activity

City Distance Mag. Time & Date
Minimum magnitude displayed is 2.5.

Coastal Water Temperatures

Place Temperature

Stations

Nearby Weather Stations

Station Location Temp. Windchill Dew Point Humidity Wind Precip. Elev Updated Type